Durand, Illinois
Current Conditions -  °F | °C
As of 4:55 AM on Wednesday 22 Oct 2014 (Local Time) from KEFT Reporting Station
Clear Clear  
Wind Chill: 32°   Ceiling: Unl
Heat Index: 36°   Visibility: 7mi
Dew Point: 34°   Wind: 5mph
Humidity: 93%   Direction: 60°ENE
Pressure: 30.3"   Gusts: NA
Location:  42.44°N, 89.33°W
Report Text: KEFT 220955Z AUTO 06004KT 7SM CLR 02/01 A3030 RMK AO2
Loading
Personal Weather Stations






























Interactive Weather Map
Tropical Storm Tracking
New forecast layout! Learn more

10-Day Weather Forecast

Advertisements
Track Severe Weather on mobile